createdAt,value
2023-05-12T00:02:05.484Z,76961.84
2023-05-12T00:04:33.034Z,76965.91
2023-05-12T00:07:00.201Z,76974.00
2023-05-12T00:09:27.700Z,76974.00
2023-05-12T00:11:55.007Z,76982.13
2023-05-12T00:14:22.193Z,76974.00
2023-05-12T00:16:51.896Z,76982.13
2023-05-12T00:19:20.389Z,76986.16
2023-05-12T00:21:47.892Z,76982.13
2023-05-12T00:24:15.553Z,76988.19
2023-05-12T00:26:42.478Z,76986.16
2023-05-12T00:29:10.143Z,76994.28
2023-05-12T00:31:37.088Z,76994.28
2023-05-12T00:34:04.421Z,76998.34
2023-05-12T00:36:32.004Z,77002.41
2023-05-12T00:38:59.547Z,77002.41
2023-05-12T00:41:26.885Z,77002.41
2023-05-12T00:43:54.687Z,77014.56
2023-05-12T00:46:22.011Z,77012.53
2023-05-12T00:48:50.329Z,77018.63
2023-05-12T00:51:17.645Z,77032.81
2023-05-12T00:53:49.709Z,77026.72
2023-05-12T00:56:19.070Z,77030.78
2023-05-12T00:58:47.158Z,77038.88
2023-05-12T01:01:16.081Z,77038.88
2023-05-12T01:03:44.545Z,77049.03
2023-05-12T01:06:54.113Z,77055.09
2023-05-12T01:09:22.070Z,77051.06
2023-05-12T01:11:49.304Z,77059.16
2023-05-12T01:14:17.779Z,77057.13
2023-05-12T01:17:09.075Z,77063.22
2023-05-12T01:19:49.746Z,77063.22
2023-05-12T01:22:18.945Z,77071.31
2023-05-12T01:25:00.200Z,77081.47
2023-05-12T01:27:30.287Z,77079.44
2023-05-12T01:30:00.471Z,77085.50
2023-05-12T01:32:30.526Z,77085.50
2023-05-12T01:34:57.993Z,77089.56
2023-05-12T01:37:29.115Z,77087.53
2023-05-12T01:39:57.249Z,77095.66
2023-05-12T01:42:24.409Z,77095.66
2023-05-12T01:44:51.671Z,77103.75
2023-05-12T01:47:20.958Z,77107.81
2023-05-12T01:49:54.840Z,77107.81
2023-05-12T01:52:22.297Z,77107.81
2023-05-12T01:54:51.391Z,77119.97
2023-05-12T01:57:19.280Z,77119.97
2023-05-12T01:59:46.883Z,77124.03
2023-05-12T02:02:13.874Z,77128.09
2023-05-12T02:04:41.261Z,77132.16
2023-05-12T02:07:09.162Z,77130.13
2023-05-12T02:09:36.758Z,77132.16
2023-05-12T02:12:04.923Z,77140.25
2023-05-12T02:14:32.087Z,77136.19
2023-05-12T02:16:59.443Z,77140.25
2023-05-12T02:19:26.680Z,77146.34
2023-05-12T02:21:54.774Z,77152.41
2023-05-12T02:24:22.197Z,77150.41
2023-05-12T02:26:49.255Z,77152.41
2023-05-12T02:29:17.017Z,77160.53
2023-05-12T02:31:44.274Z,77209.19
2023-05-12T02:34:16.004Z,77160.53
2023-05-12T02:36:43.604Z,77170.66
2023-05-12T02:39:12.252Z,77172.69
2023-05-12T02:41:39.565Z,77172.69
2023-05-12T02:44:07.715Z,77176.75
2023-05-12T02:46:35.063Z,77184.84
2023-05-12T02:49:02.414Z,77192.97
2023-05-12T02:51:29.665Z,77188.91
2023-05-12T02:53:57.290Z,77195.00
2023-05-12T02:56:24.487Z,77197.03
2023-05-12T02:58:51.952Z,77197.03
2023-05-12T03:01:19.011Z,77201.06
2023-05-12T03:03:46.984Z,77199.06
2023-05-12T03:06:14.275Z,77190.94
2023-05-12T03:08:41.550Z,77201.06
2023-05-12T03:11:08.516Z,77197.03
2023-05-12T03:13:36.318Z,77203.09
2023-05-12T03:16:03.442Z,77195.00
2023-05-12T03:18:31.575Z,77192.97
2023-05-12T03:20:59.150Z,77188.91
2023-05-12T03:23:26.728Z,77188.91
2023-05-12T03:25:55.511Z,77184.84
2023-05-12T03:28:26.253Z,77188.91
2023-05-12T03:30:54.313Z,77184.84
2023-05-12T03:33:21.690Z,77174.72
2023-05-12T03:35:49.882Z,77176.75
2023-05-12T03:38:18.246Z,77172.69
2023-05-12T03:40:52.504Z,77168.63
2023-05-12T03:43:21.305Z,77164.59
2023-05-12T03:45:49.415Z,77160.53
2023-05-12T03:48:17.073Z,77158.50
2023-05-12T03:50:43.893Z,77156.47
2023-05-12T03:53:11.376Z,77144.31
2023-05-12T03:55:38.218Z,77140.25
2023-05-12T03:58:05.984Z,77132.16
2023-05-12T04:00:33.326Z,77132.16
2023-05-12T04:03:00.794Z,77130.13
2023-05-12T04:05:28.792Z,77119.97
2023-05-12T04:07:56.184Z,77115.94
2023-05-12T04:10:23.764Z,77095.66
2023-05-12T04:12:52.493Z,77079.44
2023-05-12T04:15:20.023Z,77051.06
2023-05-12T04:17:47.633Z,77026.72
2023-05-12T04:20:14.578Z,76998.34
2023-05-12T04:22:41.980Z,76986.16
2023-05-12T04:25:10.084Z,76971.97
2023-05-12T04:27:38.072Z,76953.75
2023-05-12T04:30:06.964Z,76935.50
2023-05-12T04:32:37.327Z,76925.34
2023-05-12T04:35:05.511Z,76909.13
2023-05-12T04:37:32.711Z,76880.75
2023-05-12T04:40:00.165Z,76884.81
2023-05-12T04:42:27.570Z,76860.47
2023-05-12T04:44:55.038Z,76824.00
2023-05-12T04:47:22.309Z,76819.94
2023-05-12T04:49:49.620Z,76767.22
2023-05-12T04:52:16.761Z,76761.16
2023-05-12T04:54:44.092Z,76722.63
2023-05-12T04:57:11.837Z,76673.97
2023-05-12T04:59:41.317Z,76633.44
2023-05-12T05:02:09.621Z,76607.09
2023-05-12T05:04:36.689Z,76572.63
2023-05-12T05:07:04.424Z,76548.31
2023-05-12T05:09:33.386Z,76523.97
2023-05-12T05:12:02.438Z,76528.03
2023-05-12T05:14:29.466Z,76560.47
2023-05-12T05:16:57.925Z,76594.91
2023-05-12T05:19:37.816Z,76643.56
2023-05-12T05:22:12.945Z,76661.81
2023-05-12T05:24:39.968Z,76676.00
2023-05-12T05:27:07.554Z,76682.09
2023-05-12T05:29:34.430Z,76694.25
2023-05-12T05:32:02.157Z,76686.13
2023-05-12T05:34:29.531Z,76694.25
2023-05-12T05:36:57.373Z,76698.31
2023-05-12T05:39:24.640Z,76702.34
2023-05-12T05:41:52.250Z,76694.25
2023-05-12T05:44:19.382Z,76682.09
2023-05-12T05:46:46.884Z,76678.03
2023-05-12T05:49:14.742Z,76676.00
2023-05-12T05:51:42.069Z,76673.97
2023-05-12T05:54:09.118Z,76673.97
2023-05-12T05:56:37.245Z,76665.88
2023-05-12T05:59:05.224Z,76657.75
2023-05-12T06:01:32.998Z,76639.53
2023-05-12T06:04:01.227Z,76633.44
2023-05-12T06:06:29.105Z,76641.53
2023-05-12T06:08:56.207Z,76629.38
2023-05-12T06:11:23.956Z,76613.16
2023-05-12T06:13:51.113Z,76605.06
2023-05-12T06:16:18.630Z,76588.84
2023-05-12T06:18:46.695Z,76568.56
2023-05-12T06:21:14.137Z,76560.47
2023-05-12T06:23:41.596Z,76560.47
2023-05-12T06:26:09.673Z,76558.44
2023-05-12T06:28:36.727Z,76548.31
2023-05-12T06:31:08.650Z,76546.28
2023-05-12T06:33:36.336Z,76532.09
2023-05-12T06:36:03.893Z,76515.88
2023-05-12T06:38:32.977Z,76499.66
2023-05-12T06:41:00.506Z,76507.75
2023-05-12T06:43:27.961Z,76483.44
2023-05-12T06:45:57.061Z,76479.38
2023-05-12T06:48:24.597Z,76471.28
2023-05-12T06:50:52.013Z,76455.06
2023-05-12T06:53:19.212Z,76434.78
2023-05-12T06:55:47.189Z,76430.72
2023-05-12T06:58:14.481Z,76426.69
2023-05-12T07:00:41.901Z,76422.63
2023-05-12T07:03:10.542Z,76406.41
2023-05-12T07:05:37.991Z,76402.34
2023-05-12T07:08:05.541Z,76373.97
2023-05-12T07:10:33.354Z,76355.72
2023-05-12T07:13:00.896Z,76353.72
2023-05-12T07:15:29.244Z,76361.81
2023-05-12T07:17:57.658Z,76345.59
2023-05-12T07:20:25.285Z,76335.47
2023-05-12T07:22:54.918Z,76327.34
2023-05-12T07:25:22.931Z,76321.28
2023-05-12T07:27:50.616Z,76303.03
2023-05-12T07:30:18.116Z,76301.00
2023-05-12T07:32:45.112Z,76284.78
2023-05-12T07:35:13.116Z,76284.78
2023-05-12T07:37:41.461Z,76284.78
2023-05-12T07:40:09.206Z,76288.84
2023-05-12T07:42:36.203Z,76280.72
2023-05-12T07:45:06.410Z,76264.53
2023-05-12T07:47:33.521Z,76264.53
2023-05-12T07:50:01.187Z,76256.41
2023-05-12T07:52:28.487Z,76256.41
2023-05-12T07:54:58.753Z,76258.44
2023-05-12T07:57:25.862Z,76248.31
2023-05-12T07:59:53.448Z,76236.16
2023-05-12T08:02:20.826Z,76236.16
2023-05-12T08:04:48.560Z,76244.25
2023-05-12T08:07:16.136Z,76248.31
2023-05-12T08:09:43.568Z,76223.97
2023-05-12T08:12:10.691Z,76221.94
2023-05-12T08:14:38.418Z,76223.97
2023-05-12T08:17:05.387Z,76223.97
2023-05-12T08:19:32.945Z,76199.66
2023-05-12T08:21:59.785Z,76203.72
2023-05-12T08:24:27.455Z,76203.72
2023-05-12T08:26:54.352Z,76195.59
2023-05-12T08:29:22.660Z,76193.56
2023-05-12T08:31:49.663Z,76199.66
2023-05-12T08:34:18.762Z,76191.56
2023-05-12T08:36:45.959Z,76187.50
2023-05-12T08:39:13.821Z,76187.50
2023-05-12T08:41:52.137Z,76167.22
2023-05-12T08:44:20.143Z,76169.25
2023-05-12T08:46:51.133Z,76157.09
2023-05-12T08:49:21.559Z,76146.97
2023-05-12T08:51:57.851Z,76140.88
2023-05-12T08:54:27.828Z,76146.97
2023-05-12T08:59:26.330Z,76122.63
2023-05-12T09:01:54.938Z,76126.69
2023-05-12T09:04:22.577Z,76110.47
2023-05-12T09:06:51.746Z,76094.25
2023-05-12T09:09:21.279Z,76102.38
2023-05-12T09:11:51.075Z,76094.25
2023-05-12T09:14:22.856Z,76098.31
2023-05-12T09:16:56.186Z,76098.31
2023-05-12T09:19:24.211Z,76114.53
2023-05-12T09:21:51.499Z,76118.59
2023-05-12T09:24:18.945Z,76106.41
2023-05-12T09:26:51.503Z,76110.47
2023-05-12T09:29:30.103Z,76086.16
2023-05-12T09:32:01.993Z,76082.09
2023-05-12T09:34:38.561Z,76065.88
2023-05-12T09:37:08.050Z,76065.88
2023-05-12T09:39:36.537Z,76065.88
2023-05-12T09:42:03.944Z,76061.84
2023-05-12T09:44:32.461Z,76061.84
2023-05-12T09:47:07.375Z,76059.81
2023-05-12T09:49:35.045Z,76049.69
2023-05-12T09:52:05.052Z,76074.00
2023-05-12T09:54:34.299Z,76061.84
2023-05-12T09:57:05.002Z,76065.88
2023-05-12T09:59:36.507Z,76057.78
2023-05-12T10:02:06.624Z,76033.47
2023-05-12T10:04:42.601Z,76009.13
2023-05-12T10:07:13.128Z,76003.06
2023-05-12T10:09:42.900Z,75976.72
2023-05-12T10:12:10.673Z,75980.75
2023-05-12T10:14:38.709Z,75990.91
2023-05-12T10:17:07.215Z,75999.00
2023-05-12T10:19:35.756Z,76005.09
2023-05-12T10:22:06.871Z,75994.94
2023-05-12T10:24:34.958Z,75992.94
2023-05-12T10:27:05.761Z,75984.81
2023-05-12T10:29:34.385Z,75992.94
2023-05-12T10:32:01.585Z,75970.63
2023-05-12T10:34:37.182Z,75960.50
2023-05-12T10:37:09.167Z,75944.28
2023-05-12T10:39:46.649Z,75932.13
2023-05-12T10:42:17.268Z,75944.28
2023-05-12T10:44:54.860Z,75952.38
2023-05-12T10:47:29.538Z,75948.34
2023-05-12T10:49:59.106Z,75950.38
2023-05-12T10:52:28.446Z,75946.31
2023-05-12T10:55:04.214Z,75932.13
2023-05-12T10:57:33.528Z,75926.03
2023-05-12T11:00:03.495Z,75924.00
2023-05-12T11:02:34.760Z,75909.81
2023-05-12T11:05:13.191Z,75903.75
2023-05-12T11:07:50.205Z,75891.59
2023-05-12T11:10:20.038Z,75877.41
2023-05-12T11:12:47.944Z,75859.16
2023-05-12T11:15:17.251Z,75867.28
2023-05-12T11:17:46.576Z,75859.16
2023-05-12T11:20:24.527Z,75863.22
2023-05-12T11:22:53.334Z,75855.09
2023-05-12T11:25:21.020Z,75844.97
2023-05-12T11:27:53.497Z,75857.13
2023-05-12T11:30:21.479Z,75853.09
2023-05-12T11:32:48.942Z,75847.00
2023-05-12T11:35:19.476Z,75838.91
2023-05-12T11:37:47.155Z,75838.91
2023-05-12T11:40:22.579Z,75826.72
2023-05-12T11:42:56.096Z,75828.75
2023-05-12T11:45:29.299Z,75838.91
2023-05-12T11:48:11.594Z,75834.84
2023-05-12T11:50:41.957Z,75838.91
2023-05-12T11:53:15.316Z,75840.91
2023-05-12T11:55:53.908Z,75832.81
2023-05-12T11:58:31.250Z,75826.72
2023-05-12T12:01:10.727Z,75814.56
2023-05-12T12:03:49.933Z,75814.56
2023-05-12T12:06:19.040Z,75810.53
2023-05-12T12:08:57.971Z,75782.16
2023-05-12T12:11:30.844Z,75774.03
2023-05-12T12:13:58.465Z,75757.81
2023-05-12T12:16:28.125Z,75725.41
2023-05-12T12:18:56.302Z,75709.19
2023-05-12T12:21:25.572Z,75709.19
2023-05-12T12:23:52.788Z,75721.34
2023-05-12T12:26:21.748Z,75680.81
2023-05-12T12:28:49.427Z,75668.66
2023-05-12T12:31:17.275Z,75680.81
2023-05-12T12:33:44.435Z,75684.88
2023-05-12T12:36:11.686Z,75695.00
2023-05-12T12:38:40.316Z,75713.25
2023-05-12T12:41:07.916Z,75701.09
2023-05-12T12:43:35.305Z,75711.22
2023-05-12T12:46:03.321Z,75705.13
2023-05-12T12:48:32.175Z,75717.28
2023-05-12T12:51:01.303Z,75725.41
2023-05-12T12:53:28.512Z,75741.63
2023-05-12T12:55:57.255Z,75749.72
2023-05-12T12:58:24.414Z,75749.72
2023-05-12T13:00:53.224Z,75778.09
2023-05-12T13:03:20.922Z,75794.31
2023-05-12T13:05:48.777Z,75796.34
2023-05-12T13:08:17.466Z,75782.16
2023-05-12T13:10:45.579Z,75753.78
2023-05-12T13:13:13.726Z,75721.34
2023-05-12T13:15:42.279Z,75709.19
2023-05-12T13:18:09.621Z,75697.03
2023-05-12T13:20:37.186Z,75684.88
2023-05-12T13:23:05.442Z,75697.03
2023-05-12T13:25:32.921Z,75672.72
2023-05-12T13:28:01.136Z,75656.50
2023-05-12T13:30:28.426Z,75644.34
2023-05-12T13:32:55.996Z,75650.41
2023-05-12T13:35:24.079Z,75640.28
2023-05-12T13:37:51.673Z,75628.13
2023-05-12T13:40:19.104Z,75615.97
2023-05-12T13:42:46.327Z,75605.84
2023-05-12T13:45:14.711Z,75628.13
2023-05-12T13:47:42.069Z,75636.22
2023-05-12T13:50:09.470Z,75660.56
2023-05-12T13:52:37.199Z,75654.47
2023-05-12T13:55:05.899Z,75652.44
2023-05-12T13:57:34.692Z,75615.97
2023-05-12T14:00:03.329Z,75603.81
2023-05-12T14:02:31.297Z,75595.69
2023-05-12T14:05:00.784Z,75615.97
2023-05-12T14:07:29.820Z,75652.44
2023-05-12T14:09:57.131Z,75644.34
2023-05-12T14:12:25.682Z,75646.38
2023-05-12T14:14:52.936Z,75644.34
2023-05-12T14:17:20.316Z,75628.13
2023-05-12T14:19:47.741Z,75603.81
2023-05-12T14:22:25.370Z,75571.38
2023-05-12T14:24:53.830Z,75536.94
2023-05-12T14:27:20.959Z,75557.19
2023-05-12T14:29:48.503Z,75534.91
2023-05-12T14:32:16.352Z,75551.13
2023-05-12T14:34:44.196Z,75547.06
2023-05-12T14:37:11.836Z,75557.19
2023-05-12T14:39:39.663Z,75561.25
2023-05-12T14:42:07.301Z,75587.59
2023-05-12T14:44:34.673Z,75589.63
2023-05-12T14:47:02.222Z,75632.19
2023-05-12T14:49:29.615Z,75642.31
2023-05-12T14:51:56.566Z,75579.50
2023-05-12T14:54:25.885Z,75575.44
2023-05-12T14:56:53.596Z,75547.06
2023-05-12T14:59:20.932Z,75429.53
2023-05-12T15:01:48.879Z,75178.28
2023-05-12T15:04:17.010Z,74971.59
2023-05-12T15:06:44.153Z,74906.75
2023-05-12T15:09:11.637Z,74764.94
2023-05-12T15:11:39.738Z,74850.03
2023-05-12T15:14:07.208Z,74991.84
2023-05-12T15:16:35.566Z,75133.69
2023-05-12T15:19:03.622Z,75137.75
2023-05-12T15:21:31.071Z,75133.69
2023-05-12T15:23:58.712Z,75048.59
2023-05-12T15:26:33.631Z,74858.13
2023-05-12T15:29:02.077Z,74874.34
2023-05-12T15:31:29.941Z,75121.53
2023-05-12T15:33:57.906Z,75133.69
2023-05-12T15:36:25.289Z,75105.31
2023-05-12T15:38:52.556Z,75113.44
2023-05-12T15:41:19.824Z,75056.69
2023-05-12T15:43:47.477Z,74975.66
2023-05-12T15:46:14.827Z,74927.03
2023-05-12T15:48:42.709Z,75004.00
2023-05-12T15:51:09.704Z,75038.47
2023-05-12T15:53:36.916Z,75028.31
2023-05-12T15:56:05.363Z,74983.75
2023-05-12T15:58:33.129Z,75006.03
2023-05-12T16:01:00.527Z,75052.66
2023-05-12T16:03:28.158Z,75125.59
2023-05-12T16:05:55.896Z,75218.78
2023-05-12T16:08:24.080Z,75267.44
2023-05-12T16:10:51.322Z,75271.47
2023-05-12T16:13:18.649Z,75320.13
2023-05-12T16:15:46.235Z,75295.78
2023-05-12T16:18:13.450Z,75386.97
2023-05-12T16:20:41.791Z,75494.38
2023-05-12T16:23:09.355Z,75441.69
2023-05-12T16:25:37.482Z,75393.06
2023-05-12T16:28:05.326Z,75376.84
2023-05-12T16:30:32.200Z,75291.75
2023-05-12T16:32:59.670Z,75376.84
2023-05-12T16:35:26.918Z,75344.44
2023-05-12T16:37:54.300Z,75352.53
2023-05-12T16:40:21.233Z,75397.13
2023-05-12T16:42:48.750Z,75372.78
2023-05-12T16:45:15.614Z,75324.16
2023-05-12T16:47:43.185Z,75328.22
2023-05-12T16:50:10.420Z,75348.47
2023-05-12T16:52:37.888Z,75425.47
2023-05-12T16:55:05.275Z,75441.69
2023-05-12T16:57:33.145Z,75421.44
2023-05-12T17:00:02.466Z,75425.47
2023-05-12T17:02:29.752Z,75498.44
2023-05-12T17:04:57.517Z,75579.50
2023-05-12T17:07:24.767Z,75615.97
2023-05-12T17:09:52.298Z,75664.59
2023-05-12T17:12:19.767Z,75721.34
2023-05-12T17:14:59.343Z,75794.31
2023-05-12T17:17:31.342Z,75818.63
2023-05-12T17:19:58.403Z,75828.75
2023-05-12T17:22:25.945Z,75853.09
2023-05-12T17:24:53.224Z,75873.34
2023-05-12T17:27:20.880Z,75899.69
2023-05-12T17:29:48.525Z,75911.84
2023-05-12T17:32:16.204Z,75919.97
2023-05-12T17:34:43.532Z,75944.28
2023-05-12T17:37:11.062Z,75952.38
2023-05-12T17:39:40.691Z,75974.69
2023-05-12T17:42:09.239Z,75984.81
2023-05-12T17:44:36.558Z,76041.56
2023-05-12T17:47:04.915Z,76001.03
2023-05-12T17:49:32.245Z,76009.13
2023-05-12T17:51:59.476Z,76025.34
2023-05-12T17:54:26.417Z,76029.41
2023-05-12T17:56:54.068Z,76041.56
2023-05-12T17:59:21.468Z,76053.72
2023-05-12T18:01:48.749Z,76061.84
2023-05-12T18:04:18.142Z,76078.06
2023-05-12T18:06:50.288Z,76098.31
2023-05-12T18:09:18.440Z,76110.47
2023-05-12T18:11:49.183Z,76120.63
2023-05-12T18:14:16.996Z,76130.75
2023-05-12T18:16:44.617Z,76140.88
2023-05-12T18:19:11.660Z,76155.06
2023-05-12T18:21:39.268Z,76171.28
2023-05-12T18:24:07.295Z,76183.44
2023-05-12T18:26:34.690Z,76205.75
2023-05-12T18:29:01.787Z,76217.91
2023-05-12T18:31:29.445Z,76230.06
2023-05-12T18:33:56.820Z,76248.31
2023-05-12T18:36:24.272Z,76260.47
2023-05-12T18:38:52.008Z,76272.63
2023-05-12T18:41:19.346Z,76292.91
2023-05-12T18:43:46.235Z,76311.13
2023-05-12T18:46:13.588Z,76317.22
2023-05-12T18:48:40.595Z,76333.44
2023-05-12T18:51:08.196Z,76337.50
2023-05-12T18:53:35.696Z,76353.72
2023-05-12T18:56:02.860Z,76359.78
2023-05-12T18:58:29.929Z,76365.88
2023-05-12T19:00:57.530Z,76378.03
2023-05-12T19:03:24.413Z,76380.06
2023-05-12T19:05:51.937Z,76382.09
2023-05-12T19:08:20.017Z,76402.34
2023-05-12T19:10:48.165Z,76406.41
2023-05-12T19:13:15.284Z,76422.63
2023-05-12T19:15:42.821Z,76434.78
2023-05-12T19:18:10.192Z,76444.91
2023-05-12T19:20:37.898Z,76459.09
2023-05-12T19:23:05.095Z,76469.25
2023-05-12T19:25:32.365Z,76479.38
2023-05-12T19:28:00.226Z,76483.44
2023-05-12T19:30:29.293Z,76495.59
2023-05-12T19:32:56.818Z,76499.66
2023-05-12T19:35:24.649Z,76507.75
2023-05-12T19:37:51.795Z,76515.88
2023-05-12T19:40:19.138Z,76513.84
2023-05-12T19:42:46.326Z,76523.97
2023-05-12T19:45:13.630Z,76530.06
2023-05-12T19:47:41.517Z,76530.06
2023-05-12T19:50:09.561Z,76544.25
2023-05-12T19:52:37.340Z,76552.34
2023-05-12T19:55:06.496Z,76560.47
2023-05-12T19:57:33.572Z,76566.53
2023-05-12T20:00:00.744Z,76580.72
2023-05-12T20:02:30.898Z,76588.84
2023-05-12T20:05:01.919Z,76588.84
2023-05-12T20:07:29.603Z,76596.94
2023-05-12T20:09:57.119Z,76609.09
2023-05-12T20:12:24.017Z,76609.09
2023-05-12T20:14:51.433Z,76609.09
2023-05-12T20:17:18.518Z,76609.09
2023-05-12T20:19:45.887Z,76615.19
2023-05-12T20:22:12.880Z,76621.28
2023-05-12T20:24:40.694Z,76629.38
2023-05-12T20:27:07.945Z,76641.53
2023-05-12T20:29:35.451Z,76645.59
2023-05-12T20:32:02.535Z,76649.66
2023-05-12T20:34:29.927Z,76659.78
2023-05-12T20:36:57.487Z,76665.88
2023-05-12T20:39:25.345Z,76669.94
2023-05-12T20:41:52.250Z,76682.09
2023-05-12T20:44:20.362Z,76686.13
2023-05-12T20:46:48.301Z,76694.25
2023-05-12T20:49:15.753Z,76690.19
2023-05-12T20:51:42.696Z,76702.34
2023-05-12T20:54:10.643Z,76710.47
2023-05-12T20:56:37.638Z,76722.63
2023-05-12T20:59:05.019Z,76722.63
2023-05-12T21:01:32.116Z,76730.75
2023-05-12T21:03:59.632Z,76740.88
2023-05-12T21:06:27.355Z,76738.84
2023-05-12T21:08:55.233Z,76748.97
2023-05-12T21:11:22.534Z,76751.00
2023-05-12T21:13:49.884Z,76757.09
2023-05-12T21:16:16.979Z,76763.16
2023-05-12T21:18:45.087Z,76767.22
2023-05-12T21:21:12.125Z,76775.34
2023-05-12T21:23:39.557Z,76775.34
2023-05-12T21:26:09.278Z,76783.44
2023-05-12T21:28:37.696Z,76779.38
2023-05-12T21:31:04.599Z,76787.50
2023-05-12T21:33:33.225Z,76799.66
2023-05-12T21:36:00.208Z,76799.66
2023-05-12T21:38:27.869Z,76807.78
2023-05-12T21:40:56.389Z,76811.81
2023-05-12T21:43:24.241Z,76809.81
2023-05-12T21:45:51.855Z,76807.78
2023-05-12T21:48:19.378Z,76819.94
2023-05-12T21:50:58.369Z,76819.94
2023-05-12T21:53:25.885Z,76824.00
2023-05-12T21:55:52.822Z,76832.09
2023-05-12T21:58:20.385Z,76836.16
2023-05-12T22:00:47.399Z,76832.09
2023-05-12T22:03:15.538Z,76828.03
2023-05-12T22:05:44.799Z,76824.00
2023-05-12T22:08:12.024Z,76811.81
2023-05-12T22:10:39.105Z,76824.00
2023-05-12T22:13:06.639Z,76828.03
2023-05-12T22:15:34.140Z,76840.22
2023-05-12T22:18:02.059Z,76850.34
2023-05-12T22:20:28.979Z,76852.38
2023-05-12T22:22:56.415Z,76858.44
2023-05-12T22:25:23.411Z,76852.38
2023-05-12T22:27:51.111Z,76852.38
2023-05-12T22:30:19.172Z,76856.44
2023-05-12T22:32:46.803Z,76864.53
2023-05-12T22:35:14.250Z,76868.59
2023-05-12T22:37:41.466Z,76876.69
2023-05-12T22:40:09.094Z,76884.81
2023-05-12T22:42:36.660Z,76884.81
2023-05-12T22:45:04.824Z,76888.88
2023-05-12T22:47:32.600Z,76894.94
2023-05-12T22:50:00.668Z,76896.97
2023-05-12T22:52:28.200Z,76901.03
2023-05-12T22:54:55.587Z,76901.03
2023-05-12T22:57:23.283Z,76901.03
2023-05-12T22:59:50.274Z,76880.75
2023-05-12T23:02:17.673Z,76876.69
2023-05-12T23:04:44.707Z,76864.53
2023-05-12T23:07:12.250Z,76856.44
2023-05-12T23:09:39.687Z,76844.25
2023-05-12T23:12:07.251Z,76838.19
2023-05-12T23:14:34.247Z,76852.38
2023-05-12T23:17:01.422Z,76852.38
2023-05-12T23:19:28.657Z,76852.38
2023-05-12T23:21:55.918Z,76856.44
2023-05-12T23:24:23.065Z,76866.56
2023-05-12T23:26:50.923Z,76864.53
2023-05-12T23:29:18.202Z,76864.53
2023-05-12T23:31:45.720Z,76866.56
2023-05-12T23:34:12.583Z,76862.50
2023-05-12T23:36:39.801Z,76856.44
2023-05-12T23:39:07.028Z,76852.38
2023-05-12T23:41:36.330Z,76854.41
2023-05-12T23:44:03.642Z,76852.38
2023-05-12T23:46:31.295Z,76850.34
2023-05-12T23:48:58.406Z,76848.31
2023-05-12T23:51:25.985Z,76852.38
2023-05-12T23:53:52.936Z,76856.44
2023-05-12T23:56:21.687Z,76860.47
2023-05-12T23:58:49.241Z,76864.53
